Spot Road, Arizona (BMGR) Weather observations

Data are for 10 minute period ending at time listed.
 Day   Time   Solar   Ave.   Ave.  Ave.  Vector  Max.   Total    
  of    of     Rad.   Air    Rel.  Wind   Wind   Wind  Precip.   
Year   Day            Temp.  Hum.  Speed  Dir.   Gust            
2026   (MST)  Kw/m2    F      %     mph   deg.    mph    in.     
-----------------------------------------------------------------
 125   13:35   1.07   73.9    29   15.9   235    25.6    0.00 
 125   13:40   0.61   74.1    28   15.7   253    20.5    0.00 
 125   13:45   0.86   73.8    28   14.2   246    19.4    0.00 
 125   13:50   0.92   74.1    28   10.6   238    19.4    0.00 
 125   13:55   0.95   75.3    27   16.2   223    30.0    0.00 
 125   14:00   0.62   75.1    27   23.2   230    30.6    0.00 
 125   14:05   0.64   74.7    27   14.8   236    23.3    0.00 
 125   14:10   0.43   73.6    28   12.9   228    18.9    0.00 
 125   14:15   0.74   74.1    28   11.8   237    18.9    0.00 
 125   14:20   0.43   75.3    27   14.2   213    20.5    0.00 
 125   14:25   0.95   75.8    26   16.5   231    22.8    0.00 
 125   14:30   0.68   74.8    27   15.8   244    21.1    0.00 
 125   14:35   0.23   74.8    27   14.2   251    19.4    0.00 
 125   14:40   0.56   74.9    27    8.7   250    14.4    0.00 
 125   14:45   0.51   74.9    27   19.3   218    31.1    0.00 
 125   14:50   0.86   75.0    27   19.4   229    27.2    0.00 
 125   14:55   0.79   74.6    28   14.8   224    26.7    0.00 
 125   15:00   0.78   74.8    28   15.1   224    20.5    0.00 
 125   15:05   0.76   75.6    27   17.0   218    25.6    0.00 
 125   15:10   0.75   75.7    27   16.7   220    25.0    0.00 
 125   15:15   0.73   76.3    27   17.2   225    25.6    0.00 
 125   15:20   0.71   76.0    27   14.0   219    24.4    0.00 
 125   15:25   0.63   76.0    28   16.2   222    22.2    0.00 
 125   15:30   0.65   75.5    28   15.1   215    22.8    0.00 
 125   15:35   0.68   75.7    27   16.0   237    23.3    0.00 
 125   15:40   0.66   76.5    27   17.3   230    26.1    0.00 
 125   15:45   0.65   75.7    27   18.3   227    26.1    0.00 
 125   15:50   0.60   75.3    28   10.3   241    16.6    0.00 
 125   15:55   0.61   75.7    27   15.5   244    22.2    0.00 
 125   16:00   0.60   75.8    26   16.7   229    28.4    0.00 
 125   16:05   0.59   75.8    26   17.9   238    23.3    0.00 
 125   16:10   0.57   76.5    25   16.2   226    21.1    0.00 
 125   16:15   0.56   76.6    25   16.7   216    24.4    0.00 
 125   16:20   0.54   76.5    24   17.9   219    25.0    0.00 
 125   16:25   0.52   76.8    24   14.6   220    21.1    0.00 
 125   16:30   0.43   76.6    24   15.2   226    20.0    0.00 
 125   16:35   0.47   76.0    24   14.4   234    21.6    0.00 
 125   16:40   0.43   75.9    24   13.5   242    18.9    0.00 
 125   16:45   0.43   76.0    24   17.6   228    22.2    0.00 
 125   16:50   0.38   76.2    23   19.2   208    22.8    0.00 
 125   16:55   0.42   75.7    23   13.0   194    21.1    0.00 
 125   17:00   0.41   76.1    23   14.9   200    22.2    0.00 
 125   17:05   0.39   76.4    23   16.5   224    22.8    0.00 
 125   17:10   0.35   76.6    23   16.0   229    21.1    0.00 
 125   17:15   0.36   76.2    24   13.2   225    20.0    0.00 
 125   17:20   0.35   76.3    24   15.3   232    20.5    0.00 
 125   17:25   0.33   76.5    24   14.1   227    17.7    0.00 
 125   17:30   0.26   76.4    24   11.2   210    15.5    0.00 
 125   17:35   0.22   75.9    24   14.1   210    20.0    0.00 
 125   17:40   0.07   75.2    24   13.8   221    19.4    0.00 
 125   17:45   0.19   75.4    25   13.0   223    16.0    0.00 
 125   17:50   0.21   75.6    24   10.1   244    14.4    0.00 
 125   17:55   0.23   75.6    25    8.5   234    12.1    0.00 
 125   18:00   0.21   76.0    24   10.2   209    16.0    0.00 
 125   18:05   0.15   75.9    24   11.6   204    14.9    0.00 
 125   18:10   0.17   75.8    24   11.7   212    18.9    0.00 
 125   18:15   0.16   75.7    24   10.0   233    16.6    0.00 
 125   18:20   0.14   75.8    24    8.7   212    14.4    0.00 
 125   18:25   0.13   75.7    24   11.3   202    14.4    0.00 
 125   18:30   0.11   75.4    25    9.7   198    12.1    0.00 
 125   18:35   0.10   75.8    25    6.9   232    10.5    0.00 
 125   18:40   0.08   75.4    25    8.5   212    12.1    0.00 
 125   18:45   0.07   75.1    25    7.7   221    11.0    0.00 
 125   18:50   0.06   75.3    25    6.5   221     9.9    0.00 
 125   18:55   0.05   75.2    25   10.0   234    14.9    0.00 
 125   19:00   0.04   74.8    26   15.7   225    19.4    0.00 
 125   19:05   0.03   74.5    26   16.2   236    22.8    0.00 
 125   19:10   0.02   74.2    26   13.8   244    19.4    0.00 
 125   19:15   0.01   74.0    26   11.9   250    16.6    0.00 
 125   19:20   0.01   73.9    26   15.0   239    18.9    0.00 
 125   19:25   0.00   73.7    27   15.7   233    18.9    0.00 
 125   19:30   0.00   73.5    27   14.8   232    17.7    0.00 
 125   19:35   0.00   73.4    26   14.1   239    17.7    0.00 
 125   19:40   0.00   73.2    26   13.6   244    16.6    0.00 
 125   19:45   0.00   73.0    26   13.4   243    17.2    0.00 
 125   19:50   0.00   72.8    26   12.4   243    14.9    0.00 
 125   19:55   0.00   72.6    27   13.6   245    16.6    0.00 
 125   20:00   0.00   72.5    27   13.7   246    17.2    0.00 
 125   20:05   0.00   72.3    27   12.3   244    14.4    0.00 
 125   20:10   0.00   72.2    27   12.2   244    15.5    0.00 
 125   20:15   0.00   72.1    27   12.2   244    15.5    0.00 
 125   20:20   0.00   71.9    27   11.9   245    14.9    0.00 
 125   20:25   0.00   71.8    28   11.8   247    14.4    0.00 
 125   20:30   0.00   71.5    28   10.5   248    12.1    0.00 
 125   20:35   0.00   71.4    28   10.2   245    12.1    0.00 
 125   20:40   0.00   71.3    29   10.6   242    12.7    0.00 
 125   20:45   0.00   71.2    29   10.7   242    12.7    0.00 
 125   20:50   0.00   71.0    29    9.5   241    11.6    0.00 
 125   20:55   0.00   70.9    29    8.4   239    10.5    0.00 
 125   21:00   0.00   70.7    29    8.3   240     9.9    0.00 
 125   21:05   0.00   70.6    29    8.5   240    11.6    0.00 
 125   21:10   0.00   70.5    30    9.0   242    11.0    0.00 
 125   21:15   0.00   70.3    30    8.8   240    11.0    0.00 
 125   21:20   0.00   70.2    30    9.2   242    12.1    0.00 
 125   21:25   0.00   70.2    30    9.2   242    11.6    0.00 
 125   21:30   0.00   70.0    30    8.7   240    11.0    0.00 
 125   21:35   0.00   69.8    31    7.5   239     9.3    0.00 
 125   21:40   0.00   69.8    31    8.2   241    10.5    0.00 
 125   21:45   0.00   69.5    31    7.5   240     9.3    0.00 
 125   21:50   0.00   69.1    31    6.5   234     7.7    0.00 
 125   21:55   0.00   68.2    32    5.0   229     5.4    0.00 
 125   22:00   0.00   67.3    32    5.3   220     6.5    0.00 
 125   22:05   0.00   67.2    32    6.1   216     7.1    0.00 
 125   22:10   0.00   66.9    33    6.4   217     7.7    0.00 
 125   22:15   0.00   67.2    33    7.4   226     9.3    0.00 
 125   22:20   0.00   66.9    33    7.2   220     8.2    0.00 
 125   22:25   0.00   66.2    33    7.3   214     8.8    0.00 
 125   22:30   0.00   65.8    33    7.5   212     8.8    0.00 
 125   22:35   0.00   65.4    34    7.4   212     8.2    0.00 
 125   22:40   0.00   65.1    34    7.5   207     8.8    0.00 
 125   22:45   0.00   64.7    34    8.2   202     9.9    0.00 
 125   22:50   0.00   64.8    34    8.8   200    10.5    0.00 
 125   22:55   0.00   64.7    35    8.6   201     9.9    0.00 
 125   23:00   0.00   64.8    35    8.6   200    10.5    0.00 
 125   23:05   0.00   64.8    35    8.7   200    10.5    0.00 
 125   23:10   0.00   64.5    35    9.1   206    11.0    0.00 
 125   23:15   0.00   64.6    36   10.0   211    12.7    0.00 
 125   23:20   0.00   64.8    35    9.7   212    12.7    0.00 
 125   23:25   0.00   65.1    35    9.2   207    11.6    0.00 
 125   23:30   0.00   65.7    34   10.2   209    12.7    0.00 
 125   23:35   0.00   66.0    34   10.1   206    12.7    0.00 
 125   23:40   0.00   65.6    35   10.1   203    13.8    0.00 
 125   23:45   0.00   65.1    35   10.4   207    13.3    0.00 
 125   23:50   0.00   64.6    35   10.4   210    13.3    0.00 
 125   23:55   0.00   64.1    36   10.9   212    12.7    0.00 
 126    0:00   0.00   63.8    36   11.4   213    13.8    0.00 
 126    0:05   0.00   63.6    36   11.5   214    14.4    0.00 
 126    0:10   0.00   63.4    36   11.2   217    13.3    0.00 
 126    0:15   0.00   63.5    36   11.5   221    13.8    0.00 
 126    0:20   0.00   63.1    36    9.9   219    12.1    0.00 
 126    0:25   0.00   62.8    37    9.2   212    11.0    0.00 
 126    0:30   0.00   62.4    37    8.5   204    10.5    0.00 
 126    0:35   0.00   62.2    37    8.8   204     9.9    0.00 
 126    0:40   0.00   62.0    37    8.8   206     9.9    0.00 
 126    0:45   0.00   61.9    37    8.6   205     9.9    0.00 
 126    0:50   0.00   61.5    38    8.7   207    10.5    0.00 
 126    0:55   0.00   61.4    38    8.1   212    10.5    0.00 
 126    1:00   0.00   61.4    38    8.2   208    10.5    0.00 
 126    1:05   0.00   61.6    38    9.0   211    11.6    0.00 
 126    1:10   0.00   61.7    39    9.0   213    12.7    0.00 
 126    1:15   0.00   61.6    39    8.9   213    11.0    0.00 
 126    1:20   0.00   61.4    39    9.2   215    11.0    0.00 
 126    1:25   0.00   61.2    40    8.9   212    11.0    0.00 
 126    1:30   0.00   61.0    40    8.6   214    11.6    0.00 
 126    1:35   0.00   60.9    40    8.8   209    11.6    0.00 
 126    1:40   0.00   60.7    40    8.7   207     9.9    0.00 
 126    1:45   0.00   60.6    41    8.1   209    10.5    0.00 
 126    1:50   0.00   60.4    41    7.3   208     9.9    0.00 
 126    1:55   0.00   60.4    41    7.8   203     9.9    0.00 
 126    2:00   0.00   60.2    41    8.3   202     9.9    0.00 
 126    2:05   0.00   60.0    41    8.9   200    10.5    0.00 
 126    2:10   0.00   59.9    42    9.0   202    10.5    0.00 
 126    2:15   0.00   59.8    42    8.9   204    11.0    0.00 
 126    2:20   0.00   59.8    42   10.5   201    12.1    0.00 
 126    2:25   0.00   59.8    42   11.3   201    13.8    0.00 
 126    2:30   0.00   59.9    42   11.1   203    13.3    0.00 
 126    2:35   0.00   60.0    42   10.9   203    13.8    0.00 
 126    2:40   0.00   60.0    41   10.8   203    12.1    0.00 
 126    2:45   0.00   60.0    42   10.4   201    12.1    0.00 
 126    2:50   0.00   60.0    42    9.6   200    11.6    0.00 
 126    2:55   0.00   60.0    41    8.8   207    11.0    0.00 
 126    3:00   0.00   59.8    42    8.4   209    11.6    0.00 
 126    3:05   0.00   59.8    42    7.9   204     9.9    0.00 
 126    3:10   0.00   59.7    42    8.1   204     9.9    0.00 
 126    3:15   0.00   59.8    42    7.1   206     8.8    0.00 
 126    3:20   0.00   59.9    42    7.3   210     8.8    0.00 
 126    3:25   0.00   59.8    42    7.1   207     9.9    0.00 
 126    3:30   0.00   59.7    42    7.4   204     8.8    0.00 
 126    3:35   0.00   59.8    42    7.6   205     8.8    0.00 
 126    3:40   0.00   59.9    41    7.5   205     8.8    0.00 
 126    3:45   0.00   59.9    41    8.6   204     9.9    0.00 
 126    3:50   0.00   59.6    42    8.9   205     9.9    0.00 
 126    3:55   0.00   59.3    42    9.3   205    10.5    0.00 
 126    4:00   0.00   59.1    42   10.0   204    11.6    0.00 
 126    4:05   0.00   59.1    42   10.3   205    12.1    0.00 
 126    4:10   0.00   58.9    43    9.6   210    11.0    0.00 
 126    4:15   0.00   58.7    43    9.0   211    10.5    0.00 
 126    4:20   0.00   58.7    43    8.3   207     9.9    0.00 
 126    4:25   0.00   58.6    43    8.5   203     9.3    0.00 
 126    4:30   0.00   58.7    43    9.1   204     9.9    0.00 
 126    4:35   0.00   58.5    43    8.9   208    10.5    0.00 
 126    4:40   0.00   58.7    43    9.7   213    11.0    0.00 
 126    4:45   0.00   58.3    44   10.1   212    11.6    0.00 
 126    4:50   0.00   57.9    44   10.1   213    11.0    0.00 
 126    4:55   0.00   57.9    44    9.7   211    11.6    0.00 
 126    5:00   0.00   58.0    44    8.4   208     9.9    0.00 
 126    5:05   0.00   58.7    43    8.8   205     9.9    0.00 
 126    5:10   0.00   59.5    42    8.4   201     9.3    0.00 
 126    5:15   0.00   58.1    43    5.3   187     7.7    0.00 
 126    5:20   0.00   57.7    44    3.1   151     4.9    0.00 
 126    5:25   0.00   57.7    44    2.3    93     3.2    0.00 
 126    5:30   0.00   58.2    43    2.8    92     4.3    0.00 
 126    5:35   0.00   58.5    43    3.0    60     4.9    0.00 
 126    5:40   0.00   56.8    45    4.4    32     5.4    0.00 
 126    5:45   0.01   56.6    45    3.9    30     4.9    0.00 
 126    5:50   0.01   57.1    44    1.4    49     3.2    0.00 
 126    5:55   0.02   59.0    42    0.0     0     0.0    0.00 
 126    6:00   0.03   59.5    41    1.1    83     5.4    0.00 
 126    6:05   0.04   57.8    42    3.8    78     4.3    0.00 
 126    6:10   0.05   57.5    42    3.5    83     4.3    0.00 
 126    6:15   0.06   57.4    42    4.0    96     4.9    0.00 
 126    6:20   0.08   57.9    42    3.6    98     4.9    0.00 
 126    6:25   0.09   58.1    41    4.1    80     6.0    0.00 
 126    6:30   0.10   57.5    42    3.1    83     4.3    0.00 
 126    6:35   0.12   60.3    40    0.9    94     2.6    0.00 
 126    6:40   0.13   61.9    38    0.0     0     0.0    0.00 
 126    6:45   0.15   61.0    37    2.4    41     3.8    0.00 
 126    6:50   0.16   59.5    39    2.0    62     3.2    0.00 
 126    6:55   0.18   59.6    39    2.8    94     4.3    0.00 
 126    7:00   0.19   59.7    39    4.2    93     6.0    0.00 
 126    7:05   0.21   60.6    38    3.7    84     4.9    0.00 
 126    7:10   0.22   61.1    38    3.7    91     5.4    0.00 
 126    7:15   0.24   61.5    38    4.3    92     5.4    0.00 
 126    7:20   0.26   62.3    37    4.0    96     4.9    0.00 
 126    7:25   0.27   62.6    37    4.0    93     5.4    0.00 
 126    7:30   0.29   63.3    36    3.4    84     4.9    0.00 
 126    7:35   0.30   64.4    35    3.2    83     4.3    0.00 
 126    7:40   0.32   64.8    35    3.4    74     5.4    0.00 
 126    7:45   0.34   65.2    35    2.8    60     4.9    0.00 
 126    7:50   0.35   65.8    35    2.1    41     3.8    0.00 
 126    7:55   0.37   66.3    34    3.8   358     5.4    0.00 
 126    8:00   0.39   66.1    35    1.8   348     5.4    0.00 
 126    8:05   0.40   67.1    34    1.6   344     4.3    0.00 
 126    8:10   0.42   66.6    35    1.8   267     4.9    0.00 
 126    8:15   0.43   66.5    35    0.7   263     3.8    0.00 
 126    8:20   0.45   67.7    34    0.1   187     2.1    0.00 
 126    8:25   0.47   67.9    33    0.4   260     2.1    0.00 
 126    8:30   0.48   68.5    33    1.6    34     4.3    0.00 
 126    8:35   0.50   69.0    32    0.8    82     2.6    0.00 
 126    8:40   0.51   69.5    32    3.1     2     6.5    0.00 
 126    8:45   0.53   68.3    32    3.5   358     5.4    0.00 
 126    8:50   0.54   68.7    32    2.0    14     3.8    0.00 
 126    8:55   0.56   68.9    32    2.1   318     6.5    0.00 
 126    9:00   0.57   69.7    31    2.7   322     6.0    0.00 
 126    9:05   0.59   69.6    31    2.5   284     4.9    0.00 
 126    9:10   0.60   70.1    31    1.3   357     4.9    0.00 
 126    9:15   0.62   71.5    29    3.5     3     6.0    0.00 
 126    9:20   0.63   71.3    29    3.8    33     5.4    0.00 
 126    9:25   0.64   70.8    29    3.1    24     6.0    0.00 
 126    9:30   0.66   71.6    29    3.3   316     9.3    0.00 
 126    9:35   0.67   71.2    29    3.5   320     6.0    0.00 
 126    9:40   0.68   71.7    28    2.6   335     6.5    0.00 
 126    9:45   0.69   72.6    29    4.4   294     8.2    0.00 
 126    9:50   0.71   71.7    30    5.0   273     8.2    0.00 
 126    9:55   0.72   71.8    30    3.3   240     5.4    0.00 
 126   10:00   0.73   72.7    29    2.4   302     6.5    0.00 
 126   10:05   0.74   72.8    28    5.1   323    11.0    0.00 
 126   10:10   0.75   73.0    28    2.6   282     4.9    0.00 
 126   10:15   0.76   73.9    28    3.4   302     7.7    0.00 
 126   10:20   0.77   74.4    28    3.8   226     5.4    0.00 
 126   10:25   0.78   73.9    28    2.0   165     6.0    0.00 
 126   10:30   0.79   74.8    27    2.3   316     6.5    0.00 
 126   10:35   0.80   75.9    26    2.7   275     6.0    0.00 
 126   10:40   0.81   75.6    26    4.7   257     8.2    0.00 
 126   10:45   0.82   75.6    27    3.5   244     6.5    0.00 
 126   10:50   0.83   74.8    27    3.4   187     7.1    0.00 
 126   10:55   0.84   74.8    28    5.2   202     9.3    0.00 
 126   11:00   0.84   75.6    27    3.5   228     6.0    0.00 
 126   11:05   0.85   75.4    27    5.2   205    11.0    0.00 
 126   11:10   0.86   74.7    27    7.0   214    10.5    0.00 
 126   11:15   0.87   74.5    27    3.8   254     7.7    0.00 
 126   11:20   0.88   75.1    26    2.6   217     6.0    0.00 
 126   11:25   0.88   76.1    25    5.6   200    11.6    0.00 
 126   11:30   0.89   75.7    26    5.5   160     8.8    0.00 
 126   11:35   0.89   76.8    25    5.8   176    11.6    0.00 
 126   11:40   0.89   76.6    25    7.7   185    12.1    0.00 
 126   11:45   0.90   76.3    25    5.1   156     9.9    0.00 
 126   11:50   0.90   76.8    24    3.0   252     6.5    0.00 
 126   11:55   0.91   77.3    24    2.7    66     8.8    0.00 
 126   12:00   0.91   79.2    22    3.5    79    14.4    0.00 
 126   12:05   0.91   78.9    22    3.0   354     5.4    0.00 
 126   12:10   0.91   78.1    23    4.5   359     7.7    0.00 
 126   12:15   0.91   77.0    24    6.8   343    11.6    0.00 
 126   12:20   0.91   77.8    23    4.6   267     7.1    0.00 
 126   12:25   0.91   77.3    23    3.8   209    10.5    0.00 
 126   12:30   0.91   78.5    23    7.2   314    21.6    0.00 
 126   12:35   0.91   78.8    22    8.4   235    12.7    0.00 
 126   12:40   0.91   78.0    23    7.1   203    11.6    0.00 
 126   12:45   0.91   78.7    22    6.9   254    10.5    0.00 
 126   12:50   0.91   78.4    23    7.3   325    13.3    0.00 
 126   12:55   0.91   78.7    23    3.4   358    10.5    0.00 
 126   13:00   0.91   78.0    23    5.6   359    10.5    0.00 
 126   13:05   0.91   79.6    21    5.7   213    10.5    0.00 
 126   13:10   0.90   78.9    22    6.7   186    11.6    0.00 
 126   13:15   0.90   78.9    21    2.8    86     4.9    0.00 
 126   13:20   0.90   79.5    20    5.0   195     9.9    0.00 
 126   13:25   0.89   79.2    21    6.6   238    10.5    0.00 
 126   13:30   0.89   78.4    22    4.2   237     7.7    0.00 

Return to Spot Road graphs page.


Western Regional Climate Center,wrcc@dri.edu